sensor_id;sensor_type;location;lat;lon;timestamp;temperature;humidity
10143;DHT22;5112;54.088;13.446;2024-02-23T00:01:08;11.20;99.90
10143;DHT22;5112;54.088;13.446;2024-02-23T00:11:13;11.30;99.90
10143;DHT22;5112;54.088;13.446;2024-02-23T00:21:15;11.50;99.90
10143;DHT22;5112;54.088;13.446;2024-02-23T00:31:18;11.60;99.90
10143;DHT22;5112;54.088;13.446;2024-02-23T00:41:19;11.60;99.90
10143;DHT22;5112;54.088;13.446;2024-02-23T00:51:22;11.50;99.90
10143;DHT22;5112;54.088;13.446;2024-02-23T01:01:24;11.60;99.90
10143;DHT22;5112;54.088;13.446;2024-02-23T01:11:28;11.60;99.90
10143;DHT22;5112;54.088;13.446;2024-02-23T01:21:29;11.50;99.90
10143;DHT22;5112;54.088;13.446;2024-02-23T01:31:32;11.50;99.90
10143;DHT22;5112;54.088;13.446;2024-02-23T01:41:34;11.50;99.90
10143;DHT22;5112;54.088;13.446;2024-02-23T01:51:37;11.40;99.90
10143;DHT22;5112;54.088;13.446;2024-02-23T02:01:38;11.40;99.90
10143;DHT22;5112;54.088;13.446;2024-02-23T02:11:46;11.50;99.90
10143;DHT22;5112;54.088;13.446;2024-02-23T02:21:48;11.60;99.90
10143;DHT22;5112;54.088;13.446;2024-02-23T02:31:51;11.40;99.90
10143;DHT22;5112;54.088;13.446;2024-02-23T02:41:53;11.10;99.90
10143;DHT22;5112;54.088;13.446;2024-02-23T02:51:56;10.70;99.90
10143;DHT22;5112;54.088;13.446;2024-02-23T03:01:57;10.60;99.90
10143;DHT22;5112;54.088;13.446;2024-02-23T03:12:00;10.50;99.90
10143;DHT22;5112;54.088;13.446;2024-02-23T03:22:02;10.20;99.90
10143;DHT22;5112;54.088;13.446;2024-02-23T03:32:05;10.00;99.90
10143;DHT22;5112;54.088;13.446;2024-02-23T03:42:07;9.90;99.90
10143;DHT22;5112;54.088;13.446;2024-02-23T03:52:10;9.70;99.90
10143;DHT22;5112;54.088;13.446;2024-02-23T04:02:13;9.50;99.90
10143;DHT22;5112;54.088;13.446;2024-02-23T04:12:16;9.30;99.90
10143;DHT22;5112;54.088;13.446;2024-02-23T04:22:18;9.20;99.90
10143;DHT22;5112;54.088;13.446;2024-02-23T04:32:21;9.20;99.90
10143;DHT22;5112;54.088;13.446;2024-02-23T04:42:23;9.20;99.90
10143;DHT22;5112;54.088;13.446;2024-02-23T04:52:26;8.60;99.90
10143;DHT22;5112;54.088;13.446;2024-02-23T05:02:28;8.00;99.90
10143;DHT22;5112;54.088;13.446;2024-02-23T05:12:37;8.00;99.90
10143;DHT22;5112;54.088;13.446;2024-02-23T05:22:39;7.90;99.90
10143;DHT22;5112;54.088;13.446;2024-02-23T05:32:42;7.80;99.90
10143;DHT22;5112;54.088;13.446;2024-02-23T05:42:44;7.50;99.90
10143;DHT22;5112;54.088;13.446;2024-02-23T05:52:47;7.40;99.90
10143;DHT22;5112;54.088;13.446;2024-02-23T06:02:48;7.30;99.90
10143;DHT22;5112;54.088;13.446;2024-02-23T06:12:51;7.10;99.90
10143;DHT22;5112;54.088;13.446;2024-02-23T06:22:54;7.00;99.90
10143;DHT22;5112;54.088;13.446;2024-02-23T06:32:57;7.00;99.90
10143;DHT22;5112;54.088;13.446;2024-02-23T06:42:59;6.80;99.90
10143;DHT22;5112;54.088;13.446;2024-02-23T06:53:02;6.90;99.90
10143;DHT22;5112;54.088;13.446;2024-02-23T07:03:04;7.00;99.90
10143;DHT22;5112;54.088;13.446;2024-02-23T07:13:07;6.90;99.90
10143;DHT22;5112;54.088;13.446;2024-02-23T07:23:09;7.00;99.90
10143;DHT22;5112;54.088;13.446;2024-02-23T07:33:12;7.30;99.90
10143;DHT22;5112;54.088;13.446;2024-02-23T07:43:14;7.40;99.90
10143;DHT22;5112;54.088;13.446;2024-02-23T07:53:17;7.40;99.90
10143;DHT22;5112;54.088;13.446;2024-02-23T08:03:18;7.40;99.90
10143;DHT22;5112;54.088;13.446;2024-02-23T08:13:21;7.30;99.90
10143;DHT22;5112;54.088;13.446;2024-02-23T08:23:23;7.30;99.90
10143;DHT22;5112;54.088;13.446;2024-02-23T08:33:26;7.10;99.90
10143;DHT22;5112;54.088;13.446;2024-02-23T08:43:28;7.90;99.90
10143;DHT22;5112;54.088;13.446;2024-02-23T08:53:31;8.20;99.90
10143;DHT22;5112;54.088;13.446;2024-02-23T09:03:32;8.30;99.90
10143;DHT22;5112;54.088;13.446;2024-02-23T09:13:35;8.60;99.90
10143;DHT22;5112;54.088;13.446;2024-02-23T09:23:37;8.60;99.90
10143;DHT22;5112;54.088;13.446;2024-02-23T09:33:40;8.80;99.90
10143;DHT22;5112;54.088;13.446;2024-02-23T09:43:42;8.80;99.90
10143;DHT22;5112;54.088;13.446;2024-02-23T09:53:47;8.50;99.90
10143;DHT22;5112;54.088;13.446;2024-02-23T10:03:50;8.70;99.90
10143;DHT22;5112;54.088;13.446;2024-02-23T10:13:54;9.30;99.90
10143;DHT22;5112;54.088;13.446;2024-02-23T10:23:55;9.30;99.90
10143;DHT22;5112;54.088;13.446;2024-02-23T10:33:58;9.70;99.90
10143;DHT22;5112;54.088;13.446;2024-02-23T10:44:01;9.70;99.90
10143;DHT22;5112;54.088;13.446;2024-02-23T10:54:06;9.80;99.90
10143;DHT22;5112;54.088;13.446;2024-02-23T11:04:09;10.10;99.90
10143;DHT22;5112;54.088;13.446;2024-02-23T11:14:12;10.40;99.90
10143;DHT22;5112;54.088;13.446;2024-02-23T11:24:15;10.50;99.90
10143;DHT22;5112;54.088;13.446;2024-02-23T11:34:23;10.40;99.90
10143;DHT22;5112;54.088;13.446;2024-02-23T11:44:25;10.40;99.90
10143;DHT22;5112;54.088;13.446;2024-02-23T11:54:28;10.10;99.90
10143;DHT22;5112;54.088;13.446;2024-02-23T12:04:31;10.40;99.90
10143;DHT22;5112;54.088;13.446;2024-02-23T12:14:36;10.10;99.90
10143;DHT22;5112;54.088;13.446;2024-02-23T12:24:38;10.10;99.90
10143;DHT22;5112;54.088;13.446;2024-02-23T12:34:44;10.20;99.90
10143;DHT22;5112;54.088;13.446;2024-02-23T12:44:45;10.40;99.90
10143;DHT22;5112;54.088;13.446;2024-02-23T12:54:49;10.30;99.90
10143;DHT22;5112;54.088;13.446;2024-02-23T13:04:50;10.20;99.90
10143;DHT22;5112;54.088;13.446;2024-02-23T13:14:53;10.20;99.90
10143;DHT22;5112;54.088;13.446;2024-02-23T13:24:55;10.20;99.90
10143;DHT22;5112;54.088;13.446;2024-02-23T13:34:58;10.20;99.90
10143;DHT22;5112;54.088;13.446;2024-02-23T13:45:05;10.00;99.90
10143;DHT22;5112;54.088;13.446;2024-02-23T13:55:09;9.80;99.90
10143;DHT22;5112;54.088;13.446;2024-02-23T14:05:10;10.00;99.90
10143;DHT22;5112;54.088;13.446;2024-02-23T14:15:14;9.80;99.90
10143;DHT22;5112;54.088;13.446;2024-02-23T14:25:16;9.70;99.90
10143;DHT22;5112;54.088;13.446;2024-02-23T14:35:19;9.70;99.90
10143;DHT22;5112;54.088;13.446;2024-02-23T14:45:20;9.80;99.90
10143;DHT22;5112;54.088;13.446;2024-02-23T14:55:25;9.80;99.90
10143;DHT22;5112;54.088;13.446;2024-02-23T15:05:27;9.80;99.90
10143;DHT22;5112;54.088;13.446;2024-02-23T15:15:29;9.70;99.90
10143;DHT22;5112;54.088;13.446;2024-02-23T15:25:31;9.60;99.90
10143;DHT22;5112;54.088;13.446;2024-02-23T15:35:36;9.50;99.90
10143;DHT22;5112;54.088;13.446;2024-02-23T15:45:37;9.30;99.90
10143;DHT22;5112;54.088;13.446;2024-02-23T15:55:40;9.10;99.90
10143;DHT22;5112;54.088;13.446;2024-02-23T16:05:42;9.00;99.90
10143;DHT22;5112;54.088;13.446;2024-02-23T16:15:45;8.80;99.90
10143;DHT22;5112;54.088;13.446;2024-02-23T16:25:48;8.60;99.90
10143;DHT22;5112;54.088;13.446;2024-02-23T16:35:52;8.30;99.90
10143;DHT22;5112;54.088;13.446;2024-02-23T16:45:56;8.20;99.90
10143;DHT22;5112;54.088;13.446;2024-02-23T16:55:59;8.20;99.90
10143;DHT22;5112;54.088;13.446;2024-02-23T17:06:02;7.90;99.90
10143;DHT22;5112;54.088;13.446;2024-02-23T17:16:06;7.70;99.90
10143;DHT22;5112;54.088;13.446;2024-02-23T17:26:08;7.70;99.90
10143;DHT22;5112;54.088;13.446;2024-02-23T17:36:10;7.50;99.90
10143;DHT22;5112;54.088;13.446;2024-02-23T17:46:12;7.40;99.90
10143;DHT22;5112;54.088;13.446;2024-02-23T17:56:15;7.40;99.90
10143;DHT22;5112;54.088;13.446;2024-02-23T18:06:17;7.30;99.90
10143;DHT22;5112;54.088;13.446;2024-02-23T18:16:22;7.30;99.90
10143;DHT22;5112;54.088;13.446;2024-02-23T18:26:23;7.20;99.90
10143;DHT22;5112;54.088;13.446;2024-02-23T18:36:27;7.10;99.90
10143;DHT22;5112;54.088;13.446;2024-02-23T18:46:28;7.00;99.90
10143;DHT22;5112;54.088;13.446;2024-02-23T18:56:31;6.80;99.90
10143;DHT22;5112;54.088;13.446;2024-02-23T19:06:33;6.60;99.90
10143;DHT22;5112;54.088;13.446;2024-02-23T19:16:36;6.60;99.90
10143;DHT22;5112;54.088;13.446;2024-02-23T19:26:38;6.50;99.90
10143;DHT22;5112;54.088;13.446;2024-02-23T19:36:41;6.40;99.90
10143;DHT22;5112;54.088;13.446;2024-02-23T19:46:43;6.50;99.90
10143;DHT22;5112;54.088;13.446;2024-02-23T19:56:46;6.40;99.90
10143;DHT22;5112;54.088;13.446;2024-02-23T20:06:48;6.40;99.90
10143;DHT22;5112;54.088;13.446;2024-02-23T20:16:51;6.30;99.90
10143;DHT22;5112;54.088;13.446;2024-02-23T20:26:53;6.20;99.90
10143;DHT22;5112;54.088;13.446;2024-02-23T20:36:56;6.20;99.90
10143;DHT22;5112;54.088;13.446;2024-02-23T20:46:57;6.10;99.90
10143;DHT22;5112;54.088;13.446;2024-02-23T20:57:00;6.10;99.90
10143;DHT22;5112;54.088;13.446;2024-02-23T21:07:04;6.00;99.90
10143;DHT22;5112;54.088;13.446;2024-02-23T21:17:07;6.00;99.90
10143;DHT22;5112;54.088;13.446;2024-02-23T21:27:09;6.00;99.90
10143;DHT22;5112;54.088;13.446;2024-02-23T21:37:12;5.90;99.90
10143;DHT22;5112;54.088;13.446;2024-02-23T21:47:16;6.00;99.90
10143;DHT22;5112;54.088;13.446;2024-02-23T21:57:19;5.80;99.90
10143;DHT22;5112;54.088;13.446;2024-02-23T22:07:24;5.70;99.90
10143;DHT22;5112;54.088;13.446;2024-02-23T22:17:27;5.80;99.90
10143;DHT22;5112;54.088;13.446;2024-02-23T22:27:29;5.70;99.90
10143;DHT22;5112;54.088;13.446;2024-02-23T22:37:32;5.70;99.90
10143;DHT22;5112;54.088;13.446;2024-02-23T22:47:34;5.50;99.90
10143;DHT22;5112;54.088;13.446;2024-02-23T22:57:36;5.50;99.90
10143;DHT22;5112;54.088;13.446;2024-02-23T23:07:38;5.50;99.90
10143;DHT22;5112;54.088;13.446;2024-02-23T23:17:41;5.40;99.90
10143;DHT22;5112;54.088;13.446;2024-02-23T23:27:43;5.60;99.90
10143;DHT22;5112;54.088;13.446;2024-02-23T23:37:46;5.40;99.90
10143;DHT22;5112;54.088;13.446;2024-02-23T23:47:47;5.30;99.90
10143;DHT22;5112;54.088;13.446;2024-02-23T23:57:50;5.40;99.90
